sensor_id;sensor_type;location;lat;lon;timestamp;pressure;altitude;pressure_sealevel;temperature;humidity
75089;BME280;63673;49.928;8.150;2023-04-01T00:00:55;973.99;;;8.79;100
75089;BME280;63673;49.928;8.150;2023-04-01T00:01:57;973.96;;;8.78;100
75089;BME280;63673;49.928;8.150;2023-04-01T00:02:59;973.94;;;8.79;100
75089;BME280;63673;49.928;8.150;2023-04-01T00:04:00;973.99;;;8.82;100
75089;BME280;63673;49.928;8.150;2023-04-01T00:05:02;973.93;;;8.82;100
75089;BME280;63673;49.928;8.150;2023-04-01T00:06:04;973.97;;;8.82;100
75089;BME280;63673;49.928;8.150;2023-04-01T00:07:05;973.97;;;8.83;100
75089;BME280;63673;49.928;8.150;2023-04-01T00:08:07;973.9;;;8.84;100
75089;BME280;63673;49.928;8.150;2023-04-01T00:09:09;973.97;;;8.85;100
75089;BME280;63673;49.928;8.150;2023-04-01T00:10:11;973.91;;;8.84;100
75089;BME280;63673;49.928;8.150;2023-04-01T00:11:12;973.91;;;8.85;100
75089;BME280;63673;49.928;8.150;2023-04-01T00:12:14;973.9;;;8.86;100
75089;BME280;63673;49.928;8.150;2023-04-01T00:13:16;973.87;;;8.86;100
75089;BME280;63673;49.928;8.150;2023-04-01T00:14:17;973.92;;;8.85;100
75089;BME280;63673;49.928;8.150;2023-04-01T00:15:19;973.89;;;8.83;100
75089;BME280;63673;49.928;8.150;2023-04-01T00:16:21;973.86;;;8.83;100
75089;BME280;63673;49.928;8.150;2023-04-01T00:17:23;973.85;;;8.83;100
75089;BME280;63673;49.928;8.150;2023-04-01T00:18:24;973.83;;;8.82;100
75089;BME280;63673;49.928;8.150;2023-04-01T00:19:26;973.86;;;8.81;100
75089;BME280;63673;49.928;8.150;2023-04-01T00:20:28;973.91;;;8.81;100
75089;BME280;63673;49.928;8.150;2023-04-01T00:21:30;973.87;;;8.8;100
75089;BME280;63673;49.928;8.150;2023-04-01T00:22:31;973.85;;;8.79;100
75089;BME280;63673;49.928;8.150;2023-04-01T00:23:33;973.86;;;8.8;100
75089;BME280;63673;49.928;8.150;2023-04-01T00:24:35;973.91;;;8.8;100
75089;BME280;63673;49.928;8.150;2023-04-01T00:25:36;973.91;;;8.8;100
75089;BME280;63673;49.928;8.150;2023-04-01T00:26:38;973.83;;;8.79;100
75089;BME280;63673;49.928;8.150;2023-04-01T00:27:40;973.8;;;8.79;100
75089;BME280;63673;49.928;8.150;2023-04-01T00:28:42;973.83;;;8.77;100
75089;BME280;63673;49.928;8.150;2023-04-01T00:29:44;973.88;;;8.78;100
75089;BME280;63673;49.928;8.150;2023-04-01T00:30:45;973.87;;;8.78;100
75089;BME280;63673;49.928;8.150;2023-04-01T00:31:47;973.91;;;8.77;100
75089;BME280;63673;49.928;8.150;2023-04-01T00:32:51;973.78;;;8.76;100
75089;BME280;63673;49.928;8.150;2023-04-01T00:33:51;973.78;;;8.74;100
75089;BME280;63673;49.928;8.150;2023-04-01T00:34:52;973.83;;;8.73;100
75089;BME280;63673;49.928;8.150;2023-04-01T00:35:54;973.87;;;8.72;100
75089;BME280;63673;49.928;8.150;2023-04-01T00:37:01;973.69;;;8.71;100
75089;BME280;63673;49.928;8.150;2023-04-01T00:38:02;973.79;;;8.69;100
75089;BME280;63673;49.928;8.150;2023-04-01T00:39:04;973.9;;;8.69;100
75089;BME280;63673;49.928;8.150;2023-04-01T00:40:06;973.79;;;8.69;100
75089;BME280;63673;49.928;8.150;2023-04-01T00:41:08;973.81;;;8.68;100
75089;BME280;63673;49.928;8.150;2023-04-01T00:42:09;973.9;;;8.7;100
75089;BME280;63673;49.928;8.150;2023-04-01T00:43:12;973.86;;;8.69;100
75089;BME280;63673;49.928;8.150;2023-04-01T00:44:15;973.88;;;8.69;100
75089;BME280;63673;49.928;8.150;2023-04-01T00:45:31;973.81;;;8.7;100
75089;BME280;63673;49.928;8.150;2023-04-01T00:46:16;973.81;;;8.69;100
75089;BME280;63673;49.928;8.150;2023-04-01T00:47:18;973.8;;;8.68;100
75089;BME280;63673;49.928;8.150;2023-04-01T00:48:21;973.85;;;8.67;100
75089;BME280;63673;49.928;8.150;2023-04-01T00:49:22;973.77;;;8.67;100
75089;BME280;63673;49.928;8.150;2023-04-01T00:50:23;973.78;;;8.66;100
75089;BME280;63673;49.928;8.150;2023-04-01T00:51:25;973.83;;;8.65;100
75089;BME280;63673;49.928;8.150;2023-04-01T00:52:27;973.79;;;8.64;100
75089;BME280;63673;49.928;8.150;2023-04-01T00:53:28;973.81;;;8.62;100
75089;BME280;63673;49.928;8.150;2023-04-01T00:54:30;973.76;;;8.61;100
75089;BME280;63673;49.928;8.150;2023-04-01T00:55:33;973.76;;;8.62;100
75089;BME280;63673;49.928;8.150;2023-04-01T00:56:34;973.7;;;8.62;100
75089;BME280;63673;49.928;8.150;2023-04-01T00:57:35;973.81;;;8.59;100
75089;BME280;63673;49.928;8.150;2023-04-01T00:58:38;973.79;;;8.58;100
75089;BME280;63673;49.928;8.150;2023-04-01T00:59:40;973.7;;;8.57;100
75089;BME280;63673;49.928;8.150;2023-04-01T01:00:40;973.68;;;8.55;100
75089;BME280;63673;49.928;8.150;2023-04-01T01:01:42;973.77;;;8.54;100
75089;BME280;63673;49.928;8.150;2023-04-01T01:02:44;973.7;;;8.53;100
75089;BME280;63673;49.928;8.150;2023-04-01T01:03:46;973.78;;;8.51;100
75089;BME280;63673;49.928;8.150;2023-04-01T01:04:47;973.73;;;8.51;100
75089;BME280;63673;49.928;8.150;2023-04-01T01:05:53;973.76;;;8.53;100
75089;BME280;63673;49.928;8.150;2023-04-01T01:06:53;973.78;;;8.51;100
75089;BME280;63673;49.928;8.150;2023-04-01T01:07:54;973.81;;;8.51;100
75089;BME280;63673;49.928;8.150;2023-04-01T01:08:59;973.76;;;8.54;100
75089;BME280;63673;49.928;8.150;2023-04-01T01:09:58;973.73;;;8.54;100
75089;BME280;63673;49.928;8.150;2023-04-01T01:10:58;973.71;;;8.55;100
75089;BME280;63673;49.928;8.150;2023-04-01T01:12:02;973.8;;;8.54;100
75089;BME280;63673;49.928;8.150;2023-04-01T01:13:04;973.73;;;8.55;100
75089;BME280;63673;49.928;8.150;2023-04-01T01:14:05;973.79;;;8.55;100
75089;BME280;63673;49.928;8.150;2023-04-01T01:15:06;973.69;;;8.55;100
75089;BME280;63673;49.928;8.150;2023-04-01T01:16:09;973.66;;;8.52;100
75089;BME280;63673;49.928;8.150;2023-04-01T01:17:10;973.71;;;8.54;100
75089;BME280;63673;49.928;8.150;2023-04-01T01:18:12;973.77;;;8.53;100
75089;BME280;63673;49.928;8.150;2023-04-01T01:19:17;973.67;;;8.54;100
75089;BME280;63673;49.928;8.150;2023-04-01T01:21:28;973.76;;;8.53;100
75089;BME280;63673;49.928;8.150;2023-04-01T01:22:20;973.7;;;8.54;100
75089;BME280;63673;49.928;8.150;2023-04-01T01:23:38;973.7;;;8.52;100
75089;BME280;63673;49.928;8.150;2023-04-01T01:24:30;973.68;;;8.52;100
75089;BME280;63673;49.928;8.150;2023-04-01T01:25:26;973.73;;;8.53;100
75089;BME280;63673;49.928;8.150;2023-04-01T01:26:42;973.67;;;8.52;100
75089;BME280;63673;49.928;8.150;2023-04-01T01:27:26;973.72;;;8.55;100
75089;BME280;63673;49.928;8.150;2023-04-01T01:28:31;973.79;;;8.57;100
75089;BME280;63673;49.928;8.150;2023-04-01T01:29:33;973.69;;;8.58;100
75089;BME280;63673;49.928;8.150;2023-04-01T01:30:35;973.78;;;8.6;100
75089;BME280;63673;49.928;8.150;2023-04-01T01:31:33;973.75;;;8.63;100
75089;BME280;63673;49.928;8.150;2023-04-01T01:32:38;973.79;;;8.64;100
75089;BME280;63673;49.928;8.150;2023-04-01T01:33:40;973.77;;;8.66;100
75089;BME280;63673;49.928;8.150;2023-04-01T01:34:39;973.77;;;8.68;100
75089;BME280;63673;49.928;8.150;2023-04-01T01:35:40;973.71;;;8.68;100
75089;BME280;63673;49.928;8.150;2023-04-01T01:36:41;973.72;;;8.68;100
75089;BME280;63673;49.928;8.150;2023-04-01T01:37:43;973.79;;;8.69;100
75089;BME280;63673;49.928;8.150;2023-04-01T01:38:45;973.8;;;8.68;100
75089;BME280;63673;49.928;8.150;2023-04-01T01:39:47;973.79;;;8.69;100
75089;BME280;63673;49.928;8.150;2023-04-01T01:40:49;973.77;;;8.7;100
75089;BME280;63673;49.928;8.150;2023-04-01T01:41:50;973.7;;;8.69;100
75089;BME280;63673;49.928;8.150;2023-04-01T01:42:53;973.79;;;8.7;100
75089;BME280;63673;49.928;8.150;2023-04-01T01:43:53;973.82;;;8.7;100
75089;BME280;63673;49.928;8.150;2023-04-01T01:44:55;973.77;;;8.7;100
75089;BME280;63673;49.928;8.150;2023-04-01T01:45:57;973.78;;;8.71;100
75089;BME280;63673;49.928;8.150;2023-04-01T01:46:59;973.74;;;8.71;100
75089;BME280;63673;49.928;8.150;2023-04-01T01:48:01;973.79;;;8.71;100
75089;BME280;63673;49.928;8.150;2023-04-01T01:49:02;973.72;;;8.72;100
75089;BME280;63673;49.928;8.150;2023-04-01T01:50:04;973.76;;;8.71;100
75089;BME280;63673;49.928;8.150;2023-04-01T01:51:06;973.85;;;8.71;100
75089;BME280;63673;49.928;8.150;2023-04-01T01:52:07;973.82;;;8.69;100
75089;BME280;63673;49.928;8.150;2023-04-01T01:53:10;973.76;;;8.68;100
75089;BME280;63673;49.928;8.150;2023-04-01T01:54:11;973.79;;;8.68;100
75089;BME280;63673;49.928;8.150;2023-04-01T01:55:29;973.77;;;8.67;100
75089;BME280;63673;49.928;8.150;2023-04-01T01:56:14;973.85;;;8.66;100
75089;BME280;63673;49.928;8.150;2023-04-01T01:57:16;973.84;;;8.64;100
75089;BME280;63673;49.928;8.150;2023-04-01T01:58:19;973.83;;;8.63;100
75089;BME280;63673;49.928;8.150;2023-04-01T01:59:20;973.75;;;8.6;100
75089;BME280;63673;49.928;8.150;2023-04-01T02:00:21;973.8;;;8.59;100
75089;BME280;63673;49.928;8.150;2023-04-01T02:01:24;973.78;;;8.58;100
75089;BME280;63673;49.928;8.150;2023-04-01T02:02:25;973.78;;;8.58;100
75089;BME280;63673;49.928;8.150;2023-04-01T02:03:27;973.84;;;8.6;100
75089;BME280;63673;49.928;8.150;2023-04-01T02:04:28;973.84;;;8.6;100
75089;BME280;63673;49.928;8.150;2023-04-01T02:05:30;973.89;;;8.62;100
75089;BME280;63673;49.928;8.150;2023-04-01T02:06:32;973.79;;;8.62;100
75089;BME280;63673;49.928;8.150;2023-04-01T02:07:33;973.92;;;8.63;100
75089;BME280;63673;49.928;8.150;2023-04-01T02:08:36;973.82;;;8.65;100
75089;BME280;63673;49.928;8.150;2023-04-01T02:09:37;973.7;;;8.63;100
75089;BME280;63673;49.928;8.150;2023-04-01T02:10:39;973.74;;;8.62;100
75089;BME280;63673;49.928;8.150;2023-04-01T02:11:42;973.75;;;8.61;100
75089;BME280;63673;49.928;8.150;2023-04-01T02:12:42;973.7;;;8.6;100
75089;BME280;63673;49.928;8.150;2023-04-01T02:13:44;973.84;;;8.59;100
75089;BME280;63673;49.928;8.150;2023-04-01T02:14:46;973.77;;;8.58;100
75089;BME280;63673;49.928;8.150;2023-04-01T02:15:47;973.82;;;8.57;100
75089;BME280;63673;49.928;8.150;2023-04-01T02:16:49;973.8;;;8.57;100
75089;BME280;63673;49.928;8.150;2023-04-01T02:17:50;973.73;;;8.58;100
75089;BME280;63673;49.928;8.150;2023-04-01T02:18:52;973.84;;;8.58;100
75089;BME280;63673;49.928;8.150;2023-04-01T02:19:56;973.89;;;8.58;100
75089;BME280;63673;49.928;8.150;2023-04-01T02:20:56;973.82;;;8.58;100
75089;BME280;63673;49.928;8.150;2023-04-01T02:21:59;973.79;;;8.58;100
75089;BME280;63673;49.928;8.150;2023-04-01T02:22:59;973.8;;;8.58;100
75089;BME280;63673;49.928;8.150;2023-04-01T02:24:02;973.73;;;8.57;100
75089;BME280;63673;49.928;8.150;2023-04-01T02:25:04;973.81;;;8.56;100
75089;BME280;63673;49.928;8.150;2023-04-01T02:26:05;973.81;;;8.57;100
75089;BME280;63673;49.928;8.150;2023-04-01T02:27:06;973.74;;;8.59;100
75089;BME280;63673;49.928;8.150;2023-04-01T02:28:08;973.66;;;8.58;100
75089;BME280;63673;49.928;8.150;2023-04-01T02:29:10;973.75;;;8.58;100
75089;BME280;63673;49.928;8.150;2023-04-01T02:30:11;973.78;;;8.56;100
75089;BME280;63673;49.928;8.150;2023-04-01T02:31:13;973.79;;;8.55;100
75089;BME280;63673;49.928;8.150;2023-04-01T02:32:15;973.82;;;8.56;100
75089;BME280;63673;49.928;8.150;2023-04-01T02:33:17;973.8;;;8.55;100
75089;BME280;63673;49.928;8.150;2023-04-01T02:34:18;973.75;;;8.55;100
75089;BME280;63673;49.928;8.150;2023-04-01T02:35:20;973.73;;;8.55;100
75089;BME280;63673;49.928;8.150;2023-04-01T02:36:22;973.82;;;8.55;100
75089;BME280;63673;49.928;8.150;2023-04-01T02:37:23;973.78;;;8.55;100
75089;BME280;63673;49.928;8.150;2023-04-01T02:38:25;973.71;;;8.55;100
75089;BME280;63673;49.928;8.150;2023-04-01T02:39:27;973.76;;;8.55;100
75089;BME280;63673;49.928;8.150;2023-04-01T02:40:29;973.83;;;8.53;100
75089;BME280;63673;49.928;8.150;2023-04-01T02:41:30;973.71;;;8.54;100
75089;BME280;63673;49.928;8.150;2023-04-01T02:42:32;973.75;;;8.53;100
75089;BME280;63673;49.928;8.150;2023-04-01T02:43:34;973.72;;;8.51;100
75089;BME280;63673;49.928;8.150;2023-04-01T02:44:36;973.71;;;8.51;100
75089;BME280;63673;49.928;8.150;2023-04-01T02:45:37;973.69;;;8.48;100
75089;BME280;63673;49.928;8.150;2023-04-01T02:46:39;973.75;;;8.48;100
75089;BME280;63673;49.928;8.150;2023-04-01T02:47:41;973.65;;;8.47;100
75089;BME280;63673;49.928;8.150;2023-04-01T02:48:43;973.73;;;8.46;100
75089;BME280;63673;49.928;8.150;2023-04-01T02:49:44;973.68;;;8.48;100
75089;BME280;63673;49.928;8.150;2023-04-01T02:50:46;973.72;;;8.47;100
75089;BME280;63673;49.928;8.150;2023-04-01T02:51:48;973.75;;;8.46;100
75089;BME280;63673;49.928;8.150;2023-04-01T02:52:50;973.72;;;8.47;100
75089;BME280;63673;49.928;8.150;2023-04-01T02:53:51;973.66;;;8.46;100
75089;BME280;63673;49.928;8.150;2023-04-01T02:54:53;973.61;;;8.46;100
75089;BME280;63673;49.928;8.150;2023-04-01T02:55:55;973.7;;;8.47;100
75089;BME280;63673;49.928;8.150;2023-04-01T02:56:56;973.71;;;8.47;100
75089;BME280;63673;49.928;8.150;2023-04-01T02:57:58;973.71;;;8.48;100
75089;BME280;63673;49.928;8.150;2023-04-01T02:59:00;973.67;;;8.5;100
75089;BME280;63673;49.928;8.150;2023-04-01T03:00:02;973.73;;;8.49;100
75089;BME280;63673;49.928;8.150;2023-04-01T03:01:03;973.72;;;8.49;100
75089;BME280;63673;49.928;8.150;2023-04-01T03:02:05;973.67;;;8.5;100
75089;BME280;63673;49.928;8.150;2023-04-01T03:03:07;973.67;;;8.51;100
75089;BME280;63673;49.928;8.150;2023-04-01T03:04:08;973.64;;;8.51;100
75089;BME280;63673;49.928;8.150;2023-04-01T03:05:10;973.65;;;8.53;100
75089;BME280;63673;49.928;8.150;2023-04-01T03:06:13;973.74;;;8.53;100
75089;BME280;63673;49.928;8.150;2023-04-01T03:07:14;973.72;;;8.54;100
75089;BME280;63673;49.928;8.150;2023-04-01T03:08:15;973.71;;;8.53;100
75089;BME280;63673;49.928;8.150;2023-04-01T03:09:17;973.7;;;8.55;100
75089;BME280;63673;49.928;8.150;2023-04-01T03:10:19;973.67;;;8.55;100
75089;BME280;63673;49.928;8.150;2023-04-01T03:11:21;973.65;;;8.55;100
75089;BME280;63673;49.928;8.150;2023-04-01T03:12:22;973.74;;;8.56;100
75089;BME280;63673;49.928;8.150;2023-04-01T03:13:24;973.75;;;8.57;100
75089;BME280;63673;49.928;8.150;2023-04-01T03:14:26;973.71;;;8.56;100
75089;BME280;63673;49.928;8.150;2023-04-01T03:15:28;973.75;;;8.56;100
75089;BME280;63673;49.928;8.150;2023-04-01T03:16:29;973.76;;;8.56;100
75089;BME280;63673;49.928;8.150;2023-04-01T03:17:31;973.76;;;8.57;100
75089;BME280;63673;49.928;8.150;2023-04-01T03:18:33;973.73;;;8.57;100
75089;BME280;63673;49.928;8.150;2023-04-01T03:19:35;973.75;;;8.57;100
75089;BME280;63673;49.928;8.150;2023-04-01T03:20:36;973.71;;;8.57;100
75089;BME280;63673;49.928;8.150;2023-04-01T03:21:38;973.69;;;8.56;100
75089;BME280;63673;49.928;8.150;2023-04-01T03:22:40;973.87;;;8.56;100
75089;BME280;63673;49.928;8.150;2023-04-01T03:23:41;973.74;;;8.56;100
75089;BME280;63673;49.928;8.150;2023-04-01T03:24:43;973.72;;;8.56;100
75089;BME280;63673;49.928;8.150;2023-04-01T03:25:45;973.74;;;8.54;100
75089;BME280;63673;49.928;8.150;2023-04-01T03:26:47;973.72;;;8.54;100
75089;BME280;63673;49.928;8.150;2023-04-01T03:27:48;973.71;;;8.53;100
75089;BME280;63673;49.928;8.150;2023-04-01T03:28:50;973.76;;;8.5;100
75089;BME280;63673;49.928;8.150;2023-04-01T03:29:52;973.74;;;8.49;100
75089;BME280;63673;49.928;8.150;2023-04-01T03:30:54;973.76;;;8.49;100
75089;BME280;63673;49.928;8.150;2023-04-01T03:31:55;973.78;;;8.49;100
75089;BME280;63673;49.928;8.150;2023-04-01T03:32:57;973.73;;;8.49;100
75089;BME280;63673;49.928;8.150;2023-04-01T03:33:59;973.76;;;8.48;100
75089;BME280;63673;49.928;8.150;2023-04-01T03:35:00;973.76;;;8.48;100
75089;BME280;63673;49.928;8.150;2023-04-01T03:36:02;973.73;;;8.47;100
75089;BME280;63673;49.928;8.150;2023-04-01T03:37:04;973.68;;;8.46;100
75089;BME280;63673;49.928;8.150;2023-04-01T03:38:06;973.71;;;8.45;100
75089;BME280;63673;49.928;8.150;2023-04-01T03:39:07;973.73;;;8.44;100
75089;BME280;63673;49.928;8.150;2023-04-01T03:40:09;973.69;;;8.42;100
75089;BME280;63673;49.928;8.150;2023-04-01T03:41:11;973.72;;;8.43;100
75089;BME280;63673;49.928;8.150;2023-04-01T03:42:13;973.68;;;8.43;100
75089;BME280;63673;49.928;8.150;2023-04-01T03:43:14;973.64;;;8.45;100
75089;BME280;63673;49.928;8.150;2023-04-01T03:44:16;973.67;;;8.45;100
75089;BME280;63673;49.928;8.150;2023-04-01T03:45:18;973.61;;;8.45;100
75089;BME280;63673;49.928;8.150;2023-04-01T03:46:20;973.68;;;8.45;100
75089;BME280;63673;49.928;8.150;2023-04-01T03:47:21;973.64;;;8.44;100
75089;BME280;63673;49.928;8.150;2023-04-01T03:48:23;973.68;;;8.46;100
75089;BME280;63673;49.928;8.150;2023-04-01T03:49:25;973.69;;;8.46;100
75089;BME280;63673;49.928;8.150;2023-04-01T03:50:27;973.66;;;8.47;100
75089;BME280;63673;49.928;8.150;2023-04-01T03:51:28;973.67;;;8.46;100
75089;BME280;63673;49.928;8.150;2023-04-01T03:52:30;973.64;;;8.46;100
75089;BME280;63673;49.928;8.150;2023-04-01T03:53:32;973.69;;;8.46;100
75089;BME280;63673;49.928;8.150;2023-04-01T03:54:34;973.72;;;8.46;100
75089;BME280;63673;49.928;8.150;2023-04-01T03:55:35;973.7;;;8.47;100
75089;BME280;63673;49.928;8.150;2023-04-01T03:56:37;973.72;;;8.48;100
75089;BME280;63673;49.928;8.150;2023-04-01T03:57:39;973.74;;;8.48;100
75089;BME280;63673;49.928;8.150;2023-04-01T03:58:40;973.76;;;8.49;100
75089;BME280;63673;49.928;8.150;2023-04-01T03:59:42;973.75;;;8.5;100
75089;BME280;63673;49.928;8.150;2023-04-01T04:00:44;973.72;;;8.5;100
75089;BME280;63673;49.928;8.150;2023-04-01T04:01:46;973.75;;;8.51;100
75089;BME280;63673;49.928;8.150;2023-04-01T04:02:47;973.77;;;8.5;100
75089;BME280;63673;49.928;8.150;2023-04-01T04:03:49;973.77;;;8.51;100
75089;BME280;63673;49.928;8.150;2023-04-01T04:04:51;973.86;;;8.51;100
75089;BME280;63673;49.928;8.150;2023-04-01T04:05:53;973.74;;;8.51;100
75089;BME280;63673;49.928;8.150;2023-04-01T04:06:54;973.79;;;8.51;100
75089;BME280;63673;49.928;8.150;2023-04-01T04:07:56;973.8;;;8.51;100
75089;BME280;63673;49.928;8.150;2023-04-01T04:08:58;973.72;;;8.53;100
75089;BME280;63673;49.928;8.150;2023-04-01T04:09:59;973.73;;;8.53;100
75089;BME280;63673;49.928;8.150;2023-04-01T04:11:01;973.66;;;8.54;100
75089;BME280;63673;49.928;8.150;2023-04-01T04:12:03;973.73;;;8.55;100
75089;BME280;63673;49.928;8.150;2023-04-01T04:13:05;973.8;;;8.55;100
75089;BME280;63673;49.928;8.150;2023-04-01T04:14:06;973.76;;;8.55;100
75089;BME280;63673;49.928;8.150;2023-04-01T04:15:08;973.75;;;8.55;100
75089;BME280;63673;49.928;8.150;2023-04-01T04:16:10;973.77;;;8.55;100
75089;BME280;63673;49.928;8.150;2023-04-01T04:17:12;973.74;;;8.55;100
75089;BME280;63673;49.928;8.150;2023-04-01T04:18:13;973.75;;;8.55;100
75089;BME280;63673;49.928;8.150;2023-04-01T04:19:15;973.77;;;8.55;100
75089;BME280;63673;49.928;8.150;2023-04-01T04:20:17;973.73;;;8.55;100
75089;BME280;63673;49.928;8.150;2023-04-01T04:21:19;973.73;;;8.55;100
75089;BME280;63673;49.928;8.150;2023-04-01T04:22:20;973.79;;;8.56;100
75089;BME280;63673;49.928;8.150;2023-04-01T04:23:22;973.79;;;8.56;100
75089;BME280;63673;49.928;8.150;2023-04-01T04:24:24;973.78;;;8.55;100
75089;BME280;63673;49.928;8.150;2023-04-01T04:25:26;973.83;;;8.55;100
75089;BME280;63673;49.928;8.150;2023-04-01T04:26:27;973.79;;;8.54;100
75089;BME280;63673;49.928;8.150;2023-04-01T04:27:29;973.74;;;8.54;100
75089;BME280;63673;49.928;8.150;2023-04-01T04:28:31;973.76;;;8.51;100
75089;BME280;63673;49.928;8.150;2023-04-01T04:29:32;973.8;;;8.51;100
75089;BME280;63673;49.928;8.150;2023-04-01T04:30:34;973.77;;;8.5;100
75089;BME280;63673;49.928;8.150;2023-04-01T04:31:36;973.81;;;8.5;100
75089;BME280;63673;49.928;8.150;2023-04-01T04:32:38;973.79;;;8.48;100
75089;BME280;63673;49.928;8.150;2023-04-01T04:33:40;973.78;;;8.48;100
75089;BME280;63673;49.928;8.150;2023-04-01T04:34:41;973.79;;;8.47;100
75089;BME280;63673;49.928;8.150;2023-04-01T04:35:43;973.81;;;8.46;100
75089;BME280;63673;49.928;8.150;2023-04-01T04:36:45;973.81;;;8.45;100
75089;BME280;63673;49.928;8.150;2023-04-01T04:37:46;973.76;;;8.45;100
75089;BME280;63673;49.928;8.150;2023-04-01T04:38:48;973.82;;;8.43;100
75089;BME280;63673;49.928;8.150;2023-04-01T04:39:50;973.75;;;8.43;100
75089;BME280;63673;49.928;8.150;2023-04-01T04:40:52;973.78;;;8.42;100
75089;BME280;63673;49.928;8.150;2023-04-01T04:41:53;973.79;;;8.42;100
75089;BME280;63673;49.928;8.150;2023-04-01T04:42:55;973.78;;;8.41;100
75089;BME280;63673;49.928;8.150;2023-04-01T04:43:57;973.8;;;8.4;100
75089;BME280;63673;49.928;8.150;2023-04-01T04:44:58;973.78;;;8.39;100
75089;BME280;63673;49.928;8.150;2023-04-01T04:46:03;973.84;;;8.38;100
75089;BME280;63673;49.928;8.150;2023-04-01T04:47:02;973.75;;;8.36;100
75089;BME280;63673;49.928;8.150;2023-04-01T04:48:04;973.76;;;8.36;100
75089;BME280;63673;49.928;8.150;2023-04-01T04:49:05;973.72;;;8.35;100
75089;BME280;63673;49.928;8.150;2023-04-01T04:50:08;973.74;;;8.34;100
75089;BME280;63673;49.928;8.150;2023-04-01T04:51:12;973.76;;;8.34;100
75089;BME280;63673;49.928;8.150;2023-04-01T04:52:11;973.74;;;8.33;100
75089;BME280;63673;49.928;8.150;2023-04-01T04:53:13;973.75;;;8.32;100
75089;BME280;63673;49.928;8.150;2023-04-01T04:54:14;973.76;;;8.33;100
75089;BME280;63673;49.928;8.150;2023-04-01T04:55:16;973.79;;;8.32;100
75089;BME280;63673;49.928;8.150;2023-04-01T04:56:18;973.81;;;8.32;100
75089;BME280;63673;49.928;8.150;2023-04-01T04:57:19;973.82;;;8.32;100
75089;BME280;63673;49.928;8.150;2023-04-01T04:58:21;973.77;;;8.31;100
75089;BME280;63673;49.928;8.150;2023-04-01T04:59:23;973.76;;;8.31;100
75089;BME280;63673;49.928;8.150;2023-04-01T05:00:24;973.78;;;8.3;100
75089;BME280;63673;49.928;8.150;2023-04-01T05:01:26;973.78;;;8.29;100
75089;BME280;63673;49.928;8.150;2023-04-01T05:02:28;973.73;;;8.29;100
75089;BME280;63673;49.928;8.150;2023-04-01T05:03:30;973.77;;;8.29;100
75089;BME280;63673;49.928;8.150;2023-04-01T05:04:33;973.81;;;8.28;100
75089;BME280;63673;49.928;8.150;2023-04-01T05:05:33;973.82;;;8.28;100
75089;BME280;63673;49.928;8.150;2023-04-01T05:06:35;973.86;;;8.28;100
75089;BME280;63673;49.928;8.150;2023-04-01T05:07:37;973.79;;;8.27;100
75089;BME280;63673;49.928;8.150;2023-04-01T05:08:38;973.84;;;8.27;100
75089;BME280;63673;49.928;8.150;2023-04-01T05:09:40;973.84;;;8.28;100
75089;BME280;63673;49.928;8.150;2023-04-01T05:10:42;973.84;;;8.27;100
75089;BME280;63673;49.928;8.150;2023-04-01T05:11:44;973.81;;;8.27;100
75089;BME280;63673;49.928;8.150;2023-04-01T05:12:45;973.85;;;8.26;100
75089;BME280;63673;49.928;8.150;2023-04-01T05:13:47;973.84;;;8.27;100
75089;BME280;63673;49.928;8.150;2023-04-01T05:14:49;973.9;;;8.27;100
75089;BME280;63673;49.928;8.150;2023-04-01T05:15:50;973.84;;;8.27;100
75089;BME280;63673;49.928;8.150;2023-04-01T05:16:52;973.81;;;8.26;100
75089;BME280;63673;49.928;8.150;2023-04-01T05:17:54;973.8;;;8.26;100
75089;BME280;63673;49.928;8.150;2023-04-01T05:18:56;973.81;;;8.26;100
75089;BME280;63673;49.928;8.150;2023-04-01T05:19:57;973.84;;;8.26;100
75089;BME280;63673;49.928;8.150;2023-04-01T05:20:59;973.82;;;8.26;100
75089;BME280;63673;49.928;8.150;2023-04-01T05:22:01;973.81;;;8.26;100
75089;BME280;63673;49.928;8.150;2023-04-01T05:23:03;973.84;;;8.25;100
75089;BME280;63673;49.928;8.150;2023-04-01T05:24:06;973.81;;;8.26;100
75089;BME280;63673;49.928;8.150;2023-04-01T05:25:06;973.79;;;8.27;100
75089;BME280;63673;49.928;8.150;2023-04-01T05:26:09;973.8;;;8.27;100
75089;BME280;63673;49.928;8.150;2023-04-01T05:27:10;973.77;;;8.27;100
75089;BME280;63673;49.928;8.150;2023-04-01T05:28:11;973.77;;;8.28;100
75089;BME280;63673;49.928;8.150;2023-04-01T05:29:13;973.8;;;8.28;100
75089;BME280;63673;49.928;8.150;2023-04-01T05:30:15;973.81;;;8.27;100
75089;BME280;63673;49.928;8.150;2023-04-01T05:31:16;973.83;;;8.27;100
75089;BME280;63673;49.928;8.150;2023-04-01T05:32:18;973.76;;;8.28;100
75089;BME280;63673;49.928;8.150;2023-04-01T05:33:20;973.76;;;8.28;100
75089;BME280;63673;49.928;8.150;2023-04-01T05:34:22;973.77;;;8.28;100
75089;BME280;63673;49.928;8.150;2023-04-01T05:35:23;973.83;;;8.28;100
75089;BME280;63673;49.928;8.150;2023-04-01T05:36:25;973.76;;;8.29;100
75089;BME280;63673;49.928;8.150;2023-04-01T05:37:27;973.8;;;8.28;100
75089;BME280;63673;49.928;8.150;2023-04-01T05:38:29;973.82;;;8.3;100
75089;BME280;63673;49.928;8.150;2023-04-01T05:39:30;973.75;;;8.28;100
75089;BME280;63673;49.928;8.150;2023-04-01T05:40:32;973.73;;;8.28;100
75089;BME280;63673;49.928;8.150;2023-04-01T05:41:34;973.73;;;8.28;100
75089;BME280;63673;49.928;8.150;2023-04-01T05:42:36;973.73;;;8.27;100
75089;BME280;63673;49.928;8.150;2023-04-01T05:43:37;973.74;;;8.28;100
75089;BME280;63673;49.928;8.150;2023-04-01T05:44:39;973.75;;;8.27;100
75089;BME280;63673;49.928;8.150;2023-04-01T05:45:41;973.68;;;8.29;100
75089;BME280;63673;49.928;8.150;2023-04-01T05:46:42;973.71;;;8.3;100
75089;BME280;63673;49.928;8.150;2023-04-01T05:47:44;973.71;;;8.3;100
75089;BME280;63673;49.928;8.150;2023-04-01T05:48:46;973.7;;;8.3;100
75089;BME280;63673;49.928;8.150;2023-04-01T05:49:48;973.61;;;8.3;100
75089;BME280;63673;49.928;8.150;2023-04-01T05:50:49;973.7;;;8.3;100
75089;BME280;63673;49.928;8.150;2023-04-01T05:51:51;973.7;;;8.3;100
75089;BME280;63673;49.928;8.150;2023-04-01T05:52:53;973.75;;;8.3;100